首页
METAR-TAF:

METAR-TAF

机场 :

Harding County Airport

水牛城, 南达科他州, 美国

纬度: 45-36-16N, 经度: 103-32-47W, 海拔: 915米

当前天气观测

该预报发布于56分钟前的23:56 UTC
风速9节,风向
温度 30°C
湿度 33%
气压 1013 hPa

METAR: K2WX 152356Z AUTO 36009KT 30/12 A2991 RMK AO1 SLP103 T03000122 10311 20267 56014

时间: 18:52 (00:52 UTC)


TAF: 丢失

超过4000个机场的气象观测和天气预报(METAR&TAF报告)。

可查询的气象台以黄色和红色小点在地图上表示。

将鼠标移到小点上方,可查看气象台名称。

然后点击查看天气观测和预报。

如需切换地图:点击带黑十字的绿色按钮放大地图;点击带横线的绿色按钮缩小地图;或者点击绿色箭头查看邻近地区的地图。


METAR-TAF: